Time;durP1;ratioP1;P1;durP2;ratioP2;P2;SDS_P1;SDS_P2;PMS_P1;PMS_P2;Temp;Humidity;BMP_temperature;BMP_pressure;BME280_temperature;BME280_humidity;BME280_pressure;Samples;Min_cycle;Max_cycle;Signal;HPM_P1;HPM_P2
2020/12/12 00:01:50;;;;;;;21.67;12.03;;;;;;;3.90;75.00;99079.53;124615;1095;104606;-76
2020/12/12 00:04:19;;;;;;;24.87;12.80;;;;;;;3.93;75.35;99076.63;124622;1097;104538;-77
2020/12/12 00:06:47;;;;;;;20.60;11.50;;;;;;;3.98;74.99;99080.64;124603;1095;104548;-76
2020/12/12 00:09:15;;;;;;;19.10;9.50;;;;;;;3.99;74.65;99077.88;124634;1095;104724;-78
2020/12/12 00:11:44;;;;;;;17.65;10.15;;;;;;;4.04;75.12;99082.72;124619;1095;104548;-76
2020/12/12 00:14:12;;;;;;;19.33;11.17;;;;;;;4.02;74.93;99077.61;124564;1095;104599;-76
2020/12/12 00:16:41;;;;;;;20.33;11.00;;;;;;;4.03;75.12;99079.25;124604;1095;104515;-75
2020/12/12 00:19:10;;;;;;;17.60;10.43;;;;;;;4.02;75.21;99071.47;124590;1095;104675;-76
2020/12/12 00:21:38;;;;;;;20.17;11.73;;;;;;;4.02;74.78;99067.05;124653;1095;104587;-76
2020/12/12 00:24:06;;;;;;;21.30;11.67;;;;;;;4.02;74.72;99072.33;124611;1095;104606;-77
2020/12/12 00:26:34;;;;;;;18.10;9.93;;;;;;;4.04;75.13;99072.16;124632;1095;104516;-76
2020/12/12 00:29:03;;;;;;;16.83;9.47;;;;;;;4.06;75.50;99071.06;124646;1095;104565;-78
2020/12/12 00:31:31;;;;;;;16.40;9.80;;;;;;;4.10;75.16;99069.81;124622;1095;104578;-76
2020/12/12 00:33:59;;;;;;;19.73;11.20;;;;;;;4.12;75.15;99072.31;124611;1095;104600;-77
2020/12/12 00:36:27;;;;;;;23.20;11.93;;;;;;;4.16;75.10;99071.05;124590;1095;104516;-76
2020/12/12 00:38:56;;;;;;;20.23;11.17;;;;;;;4.20;75.67;99074.25;124642;1095;104597;-78
2020/12/12 00:41:24;;;;;;;21.07;11.40;;;;;;;4.20;75.40;99075.08;124587;1095;104576;-76
2020/12/12 00:43:52;;;;;;;17.73;9.57;;;;;;;4.20;75.06;99084.81;124616;1095;104634;-76
2020/12/12 00:46:21;;;;;;;20.53;10.57;;;;;;;4.19;75.38;99078.67;124627;1095;104596;-76
2020/12/12 00:48:49;;;;;;;20.47;10.60;;;;;;;4.24;75.51;99070.34;124710;1095;104657;-75
2020/12/12 00:51:17;;;;;;;19.73;11.43;;;;;;;4.25;75.24;99067.57;124659;1095;104522;-76
2020/12/12 00:53:46;;;;;;;22.00;12.77;;;;;;;4.26;75.58;99069.22;124601;1095;104603;-76
2020/12/12 00:56:16;;;;;;;24.30;12.20;;;;;;;4.26;75.39;99063.94;124621;1095;104532;-75
2020/12/12 00:58:44;;;;;;;22.63;12.87;;;;;;;4.28;75.44;99064.63;124640;1095;104484;-77
2020/12/12 01:01:13;;;;;;;22.00;12.30;;;;;;;4.26;75.51;99069.22;124585;1095;104612;-77
2020/12/12 01:03:42;;;;;;;20.27;11.40;;;;;;;4.28;75.54;99069.91;124620;1095;104608;-78
2020/12/12 01:06:12;;;;;;;22.23;12.33;;;;;;;4.27;75.56;99068.26;124690;1095;104522;-77
2020/12/12 01:08:41;;;;;;;20.83;12.40;;;;;;;4.30;75.63;99075.88;124689;1097;104653;-75
2020/12/12 01:11:11;;;;;;;22.00;11.83;;;;;;;4.32;75.73;99068.64;124590;1097;104535;-78
2020/12/12 01:13:40;;;;;;;22.80;12.93;;;;;;;4.34;75.58;99071.15;124641;1095;104981;-75
2020/12/12 01:16:09;;;;;;;23.00;12.73;;;;;;;4.33;75.80;99072.14;124631;1095;104609;-76
2020/12/12 01:18:38;;;;;;;19.43;10.80;;;;;;;4.32;75.64;99068.64;124663;1094;104643;-78
2020/12/12 01:21:07;;;;;;;21.67;11.97;;;;;;;4.35;75.13;99069.33;124599;1095;104602;-77
2020/12/12 01:23:35;;;;;;;19.30;11.55;;;;;;;4.37;75.67;99070.02;124579;1095;104593;-76
2020/12/12 01:26:04;;;;;;;21.80;11.30;;;;;;;4.38;76.12;99071.70;124609;1095;104513;-75
2020/12/12 01:28:34;;;;;;;21.83;11.60;;;;;;;4.39;75.43;99073.35;124658;1095;104586;-77
2020/12/12 01:31:02;;;;;;;22.80;12.67;;;;;;;4.37;75.79;99067.38;124637;1097;104602;-77
2020/12/12 01:33:31;;;;;;;20.53;11.13;;;;;;;4.32;75.71;99073.10;124601;1095;104490;-77
2020/12/12 01:35:59;;;;;;;20.00;10.67;;;;;;;4.34;75.80;99081.71;124575;1095;105291;-77
2020/12/12 01:38:28;;;;;;;21.55;12.35;;;;;;;4.36;75.68;99081.58;124664;1095;104599;-77
2020/12/12 01:40:56;;;;;;;20.60;11.40;;;;;;;4.36;75.91;99082.41;124635;1095;104494;-75
2020/12/12 01:43:24;;;;;;;22.03;11.77;;;;;;;4.36;75.85;99089.50;124600;1095;104702;-74
2020/12/12 01:45:53;;;;;;;21.30;11.10;;;;;;;4.40;75.70;99081.14;124615;1095;104481;-74
2020/12/12 01:48:22;;;;;;;22.55;12.35;;;;;;;4.43;75.71;99088.79;124624;1095;104596;-76
2020/12/12 01:50:51;;;;;;;19.80;10.53;;;;;;;4.44;75.95;99079.05;124592;1095;104567;-78
2020/12/12 01:53:20;;;;;;;17.93;10.23;;;;;;;4.45;75.82;99072.81;124591;1095;104717;-75
2020/12/12 01:55:50;;;;;;;21.47;11.57;;;;;;;4.48;75.79;99077.78;124647;1095;104481;-77
2020/12/12 01:58:19;;;;;;;21.63;11.43;;;;;;;4.50;75.60;99075.83;124638;1097;104666;-76
2020/12/12 02:00:48;;;;;;;22.55;12.75;;;;;;;4.52;75.58;99079.16;124636;1095;104590;-77
2020/12/12 02:03:21;;;;;;;22.63;12.07;;;;;;;4.51;75.73;99077.52;124612;1095;104961;-76
2020/12/12 02:05:51;;;;;;;24.33;13.40;;;;;;;4.48;75.91;99077.78;124677;1095;104593;-76
2020/12/12 02:08:20;;;;;;;22.20;12.57;;;;;;;4.44;75.83;99081.69;124728;1096;104949;-76
2020/12/12 02:10:50;;;;;;;22.17;11.93;;;;;;;4.42;75.83;99073.08;124636;1095;104490;-77
2020/12/12 02:13:19;;;;;;;22.05;12.10;;;;;;;4.42;75.84;99081.00;124667;1095;104577;-76
2020/12/12 02:15:48;;;;;;;19.75;11.20;;;;;;;4.42;76.03;99078.36;124617;1095;104643;-77
2020/12/12 02:18:21;;;;;;;24.77;13.80;;;;;;;4.45;75.86;99075.45;124619;1095;104574;-78
2020/12/12 02:20:54;;;;;;;24.37;12.90;;;;;;;4.46;75.63;99077.92;124746;1095;104548;-76
2020/12/12 02:23:23;;;;;;;23.10;12.13;;;;;;;4.45;76.04;99072.81;124723;1095;104520;-77
2020/12/12 02:25:52;;;;;;;20.70;11.30;;;;;;;4.39;76.02;99074.20;124620;1096;104528;-79
2020/12/12 02:28:22;;;;;;;22.80;11.57;;;;;;;4.36;76.17;99078.94;124632;1095;104669;-76
2020/12/12 02:30:51;;;;;;;20.87;11.93;;;;;;;4.33;76.32;99072.14;124623;1095;104631;-76
2020/12/12 02:33:20;;;;;;;20.65;11.45;;;;;;;4.36;76.00;99069.20;124631;1095;104503;-75
2020/12/12 02:35:48;;;;;;;24.37;13.23;;;;;;;4.39;75.52;99073.35;124613;1095;104516;-75
2020/12/12 02:38:16;;;;;;;23.90;13.45;;;;;;;4.41;76.15;99071.43;124671;1095;104642;-76
2020/12/12 02:40:44;;;;;;;21.80;11.60;;;;;;;4.41;75.71;99055.59;124597;1095;104733;-76
2020/12/12 02:43:13;;;;;;;21.97;12.27;;;;;;;4.44;75.97;99057.92;124672;1097;104608;-78
2020/12/12 02:45:45;;;;;;;21.60;12.60;;;;;;;4.41;76.07;99040.56;124653;1095;104487;-76
2020/12/12 02:48:14;;;;;;;21.50;12.80;;;;;;;4.39;75.27;99042.52;124695;1095;104609;-79
2020/12/12 02:50:43;;;;;;;24.40;13.05;;;;;;;4.42;75.98;99049.31;124595;1095;104574;-78
2020/12/12 02:53:11;;;;;;;27.00;14.03;;;;;;;4.37;75.87;99043.61;124603;1095;104578;-76
2020/12/12 02:55:39;;;;;;;22.87;12.83;;;;;;;4.34;75.87;99044.74;124626;1095;104515;-79
2020/12/12 02:58:08;;;;;;;20.70;11.10;;;;;;;4.37;76.06;99038.33;124605;1095;104593;-78
2020/12/12 03:00:36;;;;;;;23.77;13.20;;;;;;;4.37;76.02;99039.19;124605;1095;104596;-76
2020/12/12 03:03:04;;;;;;;21.43;13.10;;;;;;;4.37;76.01;99048.89;124590;1095;104589;-76
2020/12/12 03:05:33;;;;;;;24.93;13.27;;;;;;;4.33;76.11;99043.92;124730;1095;104595;-76
2020/12/12 03:08:01;;;;;;;22.63;12.47;;;;;;;4.30;76.04;99046.00;124631;1095;104587;-77
2020/12/12 03:10:29;;;;;;;22.43;11.97;;;;;;;4.27;75.66;99036.57;124582;1096;104592;-77
2020/12/12 03:12:57;;;;;;;21.87;12.00;;;;;;;4.25;76.16;99038.53;124576;1095;104519;-77
2020/12/12 03:15:26;;;;;;;22.33;12.83;;;;;;;4.23;75.70;99047.55;124611;1095;104920;-76
2020/12/12 03:17:54;;;;;;;23.70;12.90;;;;;;;4.24;76.11;99047.41;124619;1095;104641;-79
2020/12/12 03:20:23;;;;;;;21.90;12.47;;;;;;;4.25;76.22;99048.23;124611;1095;104767;-76
2020/12/12 03:22:51;;;;;;;23.03;12.77;;;;;;;4.23;76.52;99058.11;124607;1095;104522;-77
2020/12/12 03:25:20;;;;;;;20.00;11.35;;;;;;;4.21;76.23;99052.96;124618;1095;104529;-76
2020/12/12 03:27:48;;;;;;;22.40;12.00;;;;;;;4.21;76.20;99058.24;124633;1095;105046;-77
2020/12/12 03:30:16;;;;;;;23.47;13.20;;;;;;;4.23;76.54;99056.29;124608;1095;104680;-78
2020/12/12 03:32:44;;;;;;;22.50;12.50;;;;;;;4.23;76.43;99056.29;124628;1095;104509;-77
2020/12/12 03:35:13;;;;;;;23.33;13.47;;;;;;;4.25;76.12;99057.01;124604;1095;104650;-76
2020/12/12 03:37:41;;;;;;;24.77;14.33;;;;;;;4.24;76.08;99060.61;124640;1095;104599;-78
2020/12/12 03:40:09;;;;;;;24.17;12.23;;;;;;;4.25;76.55;99064.93;124604;1095;104587;-75
2020/12/12 03:42:37;;;;;;;21.43;11.70;;;;;;;4.21;76.00;99060.05;124601;1096;104519;-76
2020/12/12 03:45:06;;;;;;;24.77;12.37;;;;;;;4.23;76.39;99063.39;124628;1095;104503;-77
2020/12/12 03:47:34;;;;;;;24.35;13.45;;;;;;;4.22;76.23;99059.92;124624;1095;104658;-78
2020/12/12 03:50:03;;;;;;;23.17;13.07;;;;;;;4.21;76.36;99058.24;124619;1095;104564;-77
2020/12/12 03:52:31;;;;;;;22.83;12.20;;;;;;;4.20;76.49;99056.59;124586;1096;104499;-77
2020/12/12 03:54:59;;;;;;;23.03;11.90;;;;;;;4.20;76.56;99055.77;124599;1095;104526;-76
2020/12/12 03:57:27;;;;;;;20.80;11.40;;;;;;;4.21;76.52;99062.70;124656;1095;104867;-76
2020/12/12 03:59:56;;;;;;;20.07;11.60;;;;;;;4.21;76.33;99065.34;124687;1095;104602;-75
2020/12/12 04:02:24;;;;;;;22.40;12.73;;;;;;;4.22;76.36;99059.09;124620;1095;104512;-76
2020/12/12 04:04:52;;;;;;;23.37;12.93;;;;;;;4.24;76.66;99065.06;124656;1095;104599;-76
2020/12/12 04:07:20;;;;;;;23.53;13.03;;;;;;;4.27;76.43;99065.62;124650;1095;104746;-75
2020/12/12 04:09:49;;;;;;;21.23;11.73;;;;;;;4.25;76.15;99067.57;124604;1095;104634;-74
2020/12/12 04:12:17;;;;;;;21.23;11.23;;;;;;;4.25;76.59;99061.44;124705;1095;104596;-76
2020/12/12 04:14:45;;;;;;;19.27;11.27;;;;;;;4.25;76.60;99067.57;124578;1095;104528;-75
2020/12/12 04:17:14;;;;;;;21.20;11.20;;;;;;;4.27;76.59;99060.34;124692;1095;104977;-76
2020/12/12 04:19:42;;;;;;;22.60;12.20;;;;;;;4.27;76.59;99065.62;124634;1095;104571;-78
2020/12/12 04:22:10;;;;;;;19.53;11.37;;;;;;;4.24;76.43;99065.06;124579;1095;105012;-77
2020/12/12 04:24:39;;;;;;;16.93;9.30;;;;;;;4.25;76.79;99064.08;124589;1096;104713;-76
2020/12/12 04:27:07;;;;;;;16.13;9.93;;;;;;;4.25;76.47;99062.29;124644;1095;104656;-77
2020/12/12 04:29:35;;;;;;;19.63;10.63;;;;;;;4.29;76.58;99062.81;124765;1095;104609;-78
2020/12/12 04:32:04;;;;;;;15.90;9.90;;;;;;;4.31;76.29;99068.78;124608;1095;104583;-78
2020/12/12 04:34:33;;;;;;;17.40;10.20;;;;;;;4.30;76.27;99065.31;124583;1095;104561;-78
2020/12/12 04:37:01;;;;;;;33.83;17.40;;;;;;;4.25;76.53;99074.64;124669;1095;104656;-78
2020/12/12 04:39:29;;;;;;;18.33;10.97;;;;;;;4.20;76.64;99074.25;124618;1095;104713;-76
2020/12/12 04:41:58;;;;;;;16.15;9.45;;;;;;;4.19;76.95;99070.75;124602;1095;104538;-78
2020/12/12 04:44:26;;;;;;;15.90;10.33;;;;;;;4.19;76.75;99073.39;124646;1095;104637;-78
2020/12/12 04:46:57;;;;;;;15.40;9.70;;;;;;;4.21;76.75;99063.52;124610;1095;104712;-79
2020/12/12 04:49:25;;;;;;;15.90;9.80;;;;;;;4.19;76.32;99062.83;124603;1095;104635;-76
2020/12/12 04:51:54;;;;;;;14.30;9.40;;;;;;;4.17;75.99;99059.50;124600;1095;104599;-76
2020/12/12 04:54:22;;;;;;;13.47;9.00;;;;;;;4.17;76.58;99070.06;124618;1095;104509;-77
2020/12/12 04:56:52;;;;;;;14.73;9.27;;;;;;;4.16;76.50;99062.28;124718;1095;105642;-77
2020/12/12 04:59:22;;;;;;;15.50;10.03;;;;;;;4.17;76.57;99059.50;124636;1095;104561;-74
2020/12/12 05:01:52;;;;;;;17.30;10.43;;;;;;;4.18;77.08;99061.19;124562;1095;104486;-77
2020/12/12 05:04:20;;;;;;;14.23;9.87;;;;;;;4.20;76.95;99067.16;124634;1095;104490;-74
2020/12/12 05:06:48;;;;;;;14.65;9.65;;;;;;;4.20;76.39;99077.72;124639;1095;104672;-75
2020/12/12 05:09:17;;;;;;;14.80;8.40;;;;;;;4.22;76.83;99078.41;124625;1095;104601;-76
2020/12/12 05:11:46;;;;;;;15.63;9.60;;;;;;;4.23;76.52;99068.67;124584;1095;104558;-77
2020/12/12 05:14:16;;;;;;;15.20;9.33;;;;;;;4.24;76.46;99071.17;124617;1097;104483;-76
2020/12/12 05:16:46;;;;;;;17.90;11.10;;;;;;;4.28;76.56;99067.27;124677;1096;104694;-77
2020/12/12 05:19:15;;;;;;;31.43;16.80;;;;;;;4.29;76.58;99073.38;124631;1095;104590;-77
2020/12/12 05:21:50;;;;;;;25.73;14.20;;;;;;;4.29;76.55;99068.09;124636;1095;104513;-76
2020/12/12 05:24:19;;;;;;;30.55;18.90;;;;;;;4.31;76.30;99074.92;124738;1095;104605;-76
2020/12/12 05:26:47;;;;;;;30.93;16.23;;;;;;;4.36;76.82;99079.77;124646;1095;104605;-78
2020/12/12 05:29:16;;;;;;;33.93;17.63;;;;;;;4.36;76.78;99076.30;124583;1095;104670;-77
2020/12/12 05:31:45;;;;;;;24.90;13.15;;;;;;;4.36;76.47;99076.30;124595;1096;104494;-77
2020/12/12 05:34:15;;;;;;;26.45;13.35;;;;;;;4.35;76.28;99071.97;124642;1095;104578;-77
2020/12/12 05:36:45;;;;;;;20.20;11.40;;;;;;;4.33;76.13;99069.50;124672;1095;104600;-79
2020/12/12 05:39:15;;;;;;;24.80;12.57;;;;;;;4.38;76.76;99063.78;124603;1095;104516;-79
2020/12/12 05:41:45;;;;;;;33.33;17.53;;;;;;;4.41;76.56;99066.15;124621;1095;104563;-78
2020/12/12 05:44:14;;;;;;;62.17;27.20;;;;;;;4.45;76.51;99059.59;124653;1095;104621;-79
2020/12/12 05:46:44;;;;;;;46.93;22.80;;;;;;;4.49;76.34;99061.80;124641;1095;104586;-79
2020/12/12 05:49:13;;;;;;;38.83;20.30;;;;;;;4.47;76.41;99061.11;124651;1095;104611;-77
2020/12/12 05:51:42;;;;;;;29.93;16.37;;;;;;;4.47;76.59;99062.93;124605;1095;104532;-77
2020/12/12 05:54:10;;;;;;;23.70;13.00;;;;;;;4.47;76.38;99057.64;124673;1095;104565;-78
2020/12/12 05:56:38;;;;;;;66.23;39.47;;;;;;;4.52;76.48;99060.67;124603;1095;104622;-77
2020/12/12 05:59:06;;;;;;;39.27;27.27;;;;;;;4.52;76.47;99052.74;124600;1096;105087;-78
2020/12/12 06:01:42;;;;;;;35.40;24.70;;;;;;;4.52;76.63;99058.88;124591;1095;104589;-78
2020/12/12 06:04:11;;;;;;;33.43;21.27;;;;;;;4.53;76.22;99060.53;124629;1095;104595;-76
2020/12/12 06:06:45;;;;;;;76.10;41.30;;;;;;;4.53;76.16;99051.78;124652;1095;104664;-79
2020/12/12 06:09:14;;;;;;;63.30;30.67;;;;;;;4.54;76.76;99058.71;124664;1095;104593;-77
2020/12/12 06:11:45;;;;;;;42.87;19.27;;;;;;;4.55;76.30;99063.03;124635;1095;105096;-76
2020/12/12 06:14:14;;;;;;;44.00;18.60;;;;;;;4.54;76.07;99058.71;124615;1095;104554;-74
2020/12/12 06:16:43;;;;;;;68.83;24.93;;;;;;;4.52;76.17;99063.31;124686;1095;105048;-75
2020/12/12 06:19:13;;;;;;;75.33;25.80;;;;;;;4.52;75.72;99058.03;124626;1095;104649;-75
2020/12/12 06:21:43;;;;;;;53.77;17.60;;;;;;;4.49;76.09;99061.80;124629;1095;104509;-77
2020/12/12 06:24:13;;;;;;;56.03;20.47;;;;;;;4.47;76.52;99055.83;124612;1096;104535;-77
2020/12/12 06:26:55;;;;;;;64.13;23.00;;;;;;;4.47;75.90;99065.57;124636;1095;104653;-76
2020/12/12 06:29:26;;;;;;;40.93;16.77;;;;;;;4.47;76.43;99065.57;124605;1095;104509;-76
2020/12/12 06:31:55;;;;;;;39.57;17.30;;;;;;;4.47;76.23;99069.03;124613;1095;104598;-75
2020/12/12 06:34:44;;;;;;;63.17;28.63;;;;;;;4.43;75.87;99070.30;124633;1095;104593;-76
2020/12/12 06:37:33;;;;;;;59.70;23.73;;;;;;;4.38;76.07;99074.34;124686;1095;104901;-77
2020/12/12 06:40:03;;;;;;;58.20;23.37;;;;;;;4.36;75.87;99078.94;124698;1095;104580;-75
2020/12/12 06:42:34;;;;;;;28.70;13.07;;;;;;;4.33;75.85;99072.97;124614;1096;104554;-75
2020/12/12 06:45:18;;;;;;;35.00;18.05;;;;;;;4.31;75.53;99067.00;124629;1095;104973;-76
2020/12/12 06:47:47;;;;;;;28.93;13.50;;;;;;;4.32;76.08;99068.64;124716;1095;104602;-78
2020/12/12 06:50:17;;;;;;;31.43;15.70;;;;;;;4.33;75.85;99070.33;124639;1097;104515;-76
2020/12/12 06:52:45;;;;;;;31.00;15.93;;;;;;;4.31;75.55;99080.20;124584;1095;104611;-76
2020/12/12 06:55:15;;;;;;;31.47;16.93;;;;;;;4.30;75.88;99075.88;124604;1095;104525;-78
2020/12/12 06:57:44;;;;;;;29.43;14.70;;;;;;;4.32;75.83;99073.10;124686;1095;104589;-76
2020/12/12 07:00:21;;;;;;;20.00;11.40;;;;;;;4.29;75.45;99079.52;124602;1095;104709;-76
2020/12/12 07:03:01;;;;;;;23.67;13.13;;;;;;;4.30;75.84;99078.52;124792;1095;104593;-77
2020/12/12 07:05:31;;;;;;;17.37;10.23;;;;;;;4.32;75.91;99081.85;124638;1095;104490;-77
2020/12/12 07:08:04;;;;;;;18.63;11.77;;;;;;;4.31;76.17;99077.56;124742;1095;104590;-77
2020/12/12 07:10:33;;;;;;;16.00;9.70;;;;;;;4.32;76.38;99079.21;124639;1095;104673;-77
2020/12/12 07:13:02;;;;;;;18.50;11.47;;;;;;;4.31;75.91;99080.20;124975;1095;104685;-76
2020/12/12 07:15:31;;;;;;;18.60;11.07;;;;;;;4.33;75.86;99090.62;124636;1095;104489;-78
2020/12/12 07:18:04;;;;;;;20.50;11.73;;;;;;;4.37;75.86;99091.16;124729;1095;104883;-76
2020/12/12 07:20:36;;;;;;;22.47;13.97;;;;;;;4.40;75.70;99094.34;124615;1095;104606;-76
2020/12/12 07:23:06;;;;;;;27.50;16.53;;;;;;;4.45;75.72;99099.22;124640;1095;104589;-79
2020/12/12 07:25:36;;;;;;;43.00;21.80;;;;;;;4.48;75.72;99088.34;124621;1095;104494;-78
2020/12/12 07:28:06;;;;;;;68.90;29.30;;;;;;;4.49;75.82;99104.06;124675;1095;104981;-77
2020/12/12 07:30:35;;;;;;;39.60;19.13;;;;;;;4.46;75.43;99095.59;124600;1095;104539;-78
2020/12/12 07:33:04;;;;;;;36.60;19.33;;;;;;;4.48;76.19;99093.63;124659;1095;104513;-78
2020/12/12 07:35:32;;;;;;;46.93;23.33;;;;;;;4.53;75.91;99091.41;124652;1095;104604;-78
2020/12/12 07:38:05;;;;;;;46.33;22.13;;;;;;;4.53;75.66;99089.59;124681;1095;104571;-77
2020/12/12 07:40:34;;;;;;;33.60;17.17;;;;;;;4.52;75.70;99095.01;124597;1095;104503;-77
2020/12/12 07:43:06;;;;;;;24.20;13.57;;;;;;;4.51;75.15;99096.83;124638;1095;104549;-77
2020/12/12 07:45:49;;;;;;;21.33;12.27;;;;;;;4.48;75.53;99094.48;124606;1095;104495;-76
2020/12/12 07:48:17;;;;;;;21.73;13.17;;;;;;;4.48;75.39;99101.55;124671;1095;104711;-77
2020/12/12 07:50:45;;;;;;;22.17;13.93;;;;;;;4.48;75.76;99104.20;124649;1095;104634;-77
2020/12/12 07:53:15;;;;;;;26.13;17.10;;;;;;;4.52;75.68;99105.58;124600;1095;104599;-77
2020/12/12 07:55:52;;;;;;;30.65;18.70;;;;;;;4.55;75.71;99110.59;124635;1097;104970;-77
2020/12/12 07:58:23;;;;;;;29.53;18.10;;;;;;;4.57;75.31;99108.63;124621;1095;104749;-78
2020/12/12 08:00:58;;;;;;;26.83;16.13;;;;;;;4.61;75.66;99110.01;124618;1095;104602;-78
2020/12/12 08:03:27;;;;;;;28.35;17.25;;;;;;;4.61;75.53;99104.73;124692;1095;104496;-77
2020/12/12 08:06:06;;;;;;;27.43;16.43;;;;;;;4.61;75.75;99114.47;124604;1095;104602;-77
2020/12/12 08:08:36;;;;;;;23.37;15.67;;;;;;;4.56;75.61;99108.77;124590;1095;104574;-78
2020/12/12 08:11:06;;;;;;;22.50;15.20;;;;;;;4.56;75.55;99099.06;124715;1095;104598;-79
2020/12/12 08:13:35;;;;;;;27.23;17.73;;;;;;;4.62;75.87;99105.55;124693;1090;104565;-78
2020/12/12 08:16:13;;;;;;;25.45;15.30;;;;;;;4.61;75.69;99110.01;124801;1090;104506;-76
2020/12/12 08:18:42;;;;;;;23.93;14.53;;;;;;;4.56;75.72;99099.06;124635;1090;104765;-77
2020/12/12 08:21:15;;;;;;;24.23;15.03;;;;;;;4.56;75.92;99104.34;124585;1090;104596;-76
2020/12/12 08:23:44;;;;;;;31.27;20.97;;;;;;;4.54;75.66;99111.55;124523;1090;104561;-78
2020/12/12 08:26:17;;;;;;;30.80;18.77;;;;;;;4.52;75.99;99108.22;124696;1090;104584;-76
2020/12/12 08:28:46;;;;;;;37.65;22.60;;;;;;;4.45;75.72;99115.89;124560;1090;104663;-79
2020/12/12 08:31:16;;;;;;;33.80;18.40;;;;;;;4.37;75.99;99118.42;124533;1090;104545;-78
2020/12/12 08:33:53;;;;;;;27.63;16.20;;;;;;;4.31;76.09;99111.03;124555;1095;104987;-78
2020/12/12 08:36:23;;;;;;;35.80;19.10;;;;;;;4.30;75.82;99118.13;124676;1090;104554;-77
2020/12/12 08:38:56;;;;;;;32.47;18.97;;;;;;;4.23;75.99;99117.02;124641;1095;104759;-78
2020/12/12 08:41:30;;;;;;;61.03;28.83;;;;;;;4.23;76.25;99118.83;124625;1095;104591;-77
2020/12/12 08:43:59;;;;;;;40.23;21.70;;;;;;;4.26;75.89;99129.95;124700;1097;104551;-77
2020/12/12 08:46:27;;;;;;;34.77;17.87;;;;;;;4.29;75.76;99120.91;124627;1095;104596;-79
2020/12/12 08:48:55;;;;;;;30.50;16.97;;;;;;;4.28;75.51;99122.72;124612;1095;104586;-79
2020/12/12 08:51:29;;;;;;;35.30;19.43;;;;;;;4.28;75.43;99130.64;124603;1095;104639;-76
2020/12/12 08:53:58;;;;;;;32.37;18.07;;;;;;;4.28;75.68;99128.00;124640;1095;104500;-76
2020/12/12 08:56:29;;;;;;;33.30;18.10;;;;;;;4.28;76.03;99125.36;124648;1095;104650;-77
2020/12/12 08:59:00;;;;;;;37.25;18.30;;;;;;;4.27;75.74;99113.15;124643;1095;104599;-76
2020/12/12 09:01:38;;;;;;;50.95;23.38;;;;;;;4.24;75.52;99113.42;124627;1095;104599;-77
2020/12/12 09:04:20;;;;;;;74.87;32.60;;;;;;;4.20;75.78;99119.95;124632;1095;104512;-77
2020/12/12 09:06:54;;;;;;;117.67;42.30;;;;;;;4.23;75.65;99113.55;124633;1095;104688;-78
2020/12/12 09:09:23;;;;;;;116.33;39.50;;;;;;;4.28;75.93;99124.53;124649;1095;104586;-78
2020/12/12 09:11:57;;;;;;;67.43;26.37;;;;;;;4.26;75.68;99111.47;124744;1090;104601;-78
2020/12/12 09:14:27;;;;;;;74.03;29.20;;;;;;;4.25;75.85;99120.38;124638;1095;104571;-80
2020/12/12 09:16:57;;;;;;;94.47;34.40;;;;;;;4.26;75.47;99116.75;124649;1095;104590;-77
2020/12/12 09:19:26;;;;;;;56.70;26.63;;;;;;;4.25;75.84;99114.24;124663;1095;104593;-78
2020/12/12 09:21:55;;;;;;;36.70;19.60;;;;;;;4.26;75.46;99119.39;124648;1096;104541;-75
2020/12/12 09:24:24;;;;;;;33.50;18.45;;;;;;;4.27;75.70;99121.07;124650;1095;104637;-77
2020/12/12 09:26:54;;;;;;;44.13;21.87;;;;;;;4.26;76.06;99116.75;124621;1095;104580;-75
2020/12/12 09:29:23;;;;;;;41.63;26.33;;;;;;;4.24;75.97;99112.59;124693;1095;104683;-77
2020/12/12 09:31:54;;;;;;;377.50;339.03;;;;;;;4.25;75.51;99109.81;124612;1095;104562;-76
2020/12/12 09:34:23;;;;;;;103.65;75.83;;;;;;;4.27;76.01;99107.87;124654;1095;104752;-76
2020/12/12 09:36:53;;;;;;;77.53;58.77;;;;;;;4.30;75.98;99101.46;124632;1095;104570;-76
2020/12/12 09:39:21;;;;;;;86.33;69.17;;;;;;;4.31;75.75;99108.39;124933;1095;104666;-79
2020/12/12 09:41:55;;;;;;;64.63;46.93;;;;;;;4.32;75.03;99094.23;124607;1095;104528;-76
2020/12/12 09:44:23;;;;;;;66.23;49.23;;;;;;;4.31;75.83;99098.69;124640;1095;104503;-78
2020/12/12 09:46:51;;;;;;;54.50;35.87;;;;;;;4.33;75.63;99102.02;124632;1095;104595;-78
2020/12/12 09:49:20;;;;;;;47.43;29.67;;;;;;;4.32;76.08;99100.34;124665;1095;104618;-77
2020/12/12 09:51:48;;;;;;;51.00;31.07;;;;;;;4.30;75.77;99097.00;124625;1095;104545;-76
2020/12/12 09:54:17;;;;;;;92.80;58.60;;;;;;;4.32;75.76;99095.05;124611;1095;104599;-75
2020/12/12 09:56:46;;;;;;;68.53;39.30;;;;;;;4.30;75.18;99091.72;124606;1095;104532;-78
2020/12/12 09:59:17;;;;;;;55.10;33.97;;;;;;;4.27;75.42;99099.09;124680;1097;105092;-80
2020/12/12 10:01:47;;;;;;;79.17;50.80;;;;;;;4.25;75.67;99096.62;124819;1095;104560;-79
2020/12/12 10:04:15;;;;;;;56.37;32.97;;;;;;;4.28;76.14;99092.84;124622;1095;104595;-76
2020/12/12 10:06:44;;;;;;;232.77;155.77;;;;;;;4.30;76.09;99090.90;124965;1090;104484;-78
2020/12/12 10:09:12;;;;;;;215.87;120.43;;;;;;;4.31;75.30;99097.83;124875;1095;104685;-75
2020/12/12 10:11:41;;;;;;;123.80;61.40;;;;;;;4.33;75.39;99086.17;124638;1095;104930;-75
2020/12/12 10:14:09;;;;;;;97.13;47.80;;;;;;;4.33;75.39;99099.38;124732;1095;104595;-73
2020/12/12 10:16:37;;;;;;;182.40;84.05;;;;;;;4.34;75.11;99087.00;124655;1095;104500;-71
2020/12/12 10:19:06;;;;;;;266.77;135.00;;;;;;;4.33;75.15;99087.98;124615;1095;104682;-77
2020/12/12 10:21:34;;;;;;;421.50;257.67;;;;;;;4.33;75.48;99096.73;124688;1095;104592;-74
2020/12/12 10:24:02;;;;;;;267.20;134.67;;;;;;;4.36;75.40;99090.33;124655;1095;104515;-76
2020/12/12 10:26:31;;;;;;;161.40;76.97;;;;;;;4.38;75.66;99098.11;124637;1095;104589;-77
2020/12/12 10:28:59;;;;;;;79.60;35.93;;;;;;;4.39;75.76;99097.12;124629;1096;104622;-77
2020/12/12 10:31:27;;;;;;;122.20;71.80;;;;;;;4.39;75.79;99099.77;124646;1095;104570;-78
2020/12/12 10:33:55;;;;;;;151.70;95.47;;;;;;;4.38;75.15;99098.11;124719;1095;104602;-75
2020/12/12 10:36:24;;;;;;;169.10;114.23;;;;;;;4.40;75.57;99096.16;124655;1096;104586;-75
2020/12/12 10:38:52;;;;;;;248.97;184.43;;;;;;;4.41;75.18;99097.84;124630;1097;104641;-77
2020/12/12 10:41:21;;;;;;;104.23;63.67;;;;;;;4.42;75.13;99096.84;124557;1095;104606;-75
2020/12/12 10:43:49;;;;;;;100.87;64.63;;;;;;;4.38;74.63;99093.66;124629;1095;104487;-76
2020/12/12 10:46:18;;;;;;;273.00;188.25;;;;;;;4.31;75.36;99103.97;124589;1095;104564;-75
2020/12/12 10:48:47;;;;;;;185.35;111.40;;;;;;;4.27;75.27;99102.59;124622;1095;104584;-78
2020/12/12 10:51:17;;;;;;;138.07;82.90;;;;;;;4.28;75.03;99092.84;124638;1095;104922;-76
2020/12/12 10:53:46;;;;;;;124.45;82.55;;;;;;;4.27;74.93;99109.66;124567;1095;104618;-74
2020/12/12 10:56:15;;;;;;;211.10;150.07;;;;;;;4.26;74.91;99106.19;124648;1095;104509;-76
2020/12/12 10:58:43;;;;;;;118.53;73.87;;;;;;;4.22;74.93;99110.09;124635;1095;104599;-79
2020/12/12 11:01:13;;;;;;;151.23;101.33;;;;;;;4.22;74.67;99114.55;124591;1095;104696;-77
2020/12/12 11:03:42;;;;;;;240.10;178.15;;;;;;;4.20;74.93;99112.03;124619;1095;104593;-77
2020/12/12 11:06:12;;;;;;;62.50;36.30;;;;;;;4.17;74.88;99103.56;124659;1095;104593;-77
2020/12/12 11:08:40;;;;;;;45.03;25.13;;;;;;;4.18;74.71;99108.70;124647;1095;104593;-76
2020/12/12 11:11:09;;;;;;;95.13;64.47;;;;;;;4.15;74.88;99105.51;124569;1095;104554;-78
2020/12/12 11:13:37;;;;;;;57.60;33.87;;;;;;;4.15;74.63;99108.97;124604;1095;104487;-76
2020/12/12 11:16:05;;;;;;;40.23;24.30;;;;;;;4.14;74.92;99112.60;124611;1095;104522;-77
2020/12/12 11:18:33;;;;;;;37.90;23.20;;;;;;;4.11;75.13;99104.95;124673;1095;104650;-76
2020/12/12 11:21:02;;;;;;;63.50;40.10;;;;;;;4.09;74.86;99101.63;124635;1095;104722;-75